sensor_id;sensor_type;location;lat;lon;timestamp;P1;durP1;ratioP1;P2;durP2;ratioP2
35990;SDS011;22064;42.672;23.282;2024-03-29T00:01:27;9.52;;;6.60;;
35990;SDS011;22064;42.672;23.282;2024-03-29T00:03:53;8.05;;;7.25;;
35990;SDS011;22064;42.672;23.282;2024-03-29T00:06:19;9.23;;;7.22;;
35990;SDS011;22064;42.672;23.282;2024-03-29T00:08:45;12.40;;;7.38;;
35990;SDS011;22064;42.672;23.282;2024-03-29T00:11:11;8.85;;;6.63;;
35990;SDS011;22064;42.672;23.282;2024-03-29T00:13:37;9.68;;;6.57;;
35990;SDS011;22064;42.672;23.282;2024-03-29T00:16:03;8.05;;;6.20;;
35990;SDS011;22064;42.672;23.282;2024-03-29T00:18:29;9.95;;;6.05;;
35990;SDS011;22064;42.672;23.282;2024-03-29T00:20:58;7.60;;;6.22;;
35990;SDS011;22064;42.672;23.282;2024-03-29T00:23:24;8.90;;;6.43;;
35990;SDS011;22064;42.672;23.282;2024-03-29T00:25:50;6.65;;;6.03;;
35990;SDS011;22064;42.672;23.282;2024-03-29T00:28:18;7.03;;;6.32;;
35990;SDS011;22064;42.672;23.282;2024-03-29T00:30:44;7.63;;;6.40;;
35990;SDS011;22064;42.672;23.282;2024-03-29T00:33:10;11.95;;;6.60;;
35990;SDS011;22064;42.672;23.282;2024-03-29T00:35:37;7.18;;;6.50;;
35990;SDS011;22064;42.672;23.282;2024-03-29T00:38:03;7.80;;;6.45;;
35990;SDS011;22064;42.672;23.282;2024-03-29T00:40:29;7.60;;;5.95;;
35990;SDS011;22064;42.672;23.282;2024-03-29T00:42:55;8.30;;;6.38;;
35990;SDS011;22064;42.672;23.282;2024-03-29T00:45:21;7.70;;;6.38;;
35990;SDS011;22064;42.672;23.282;2024-03-29T00:47:49;8.32;;;6.53;;
35990;SDS011;22064;42.672;23.282;2024-03-29T00:50:15;8.00;;;7.20;;
35990;SDS011;22064;42.672;23.282;2024-03-29T00:52:40;11.43;;;7.10;;
35990;SDS011;22064;42.672;23.282;2024-03-29T00:55:07;7.22;;;6.40;;
35990;SDS011;22064;42.672;23.282;2024-03-29T00:57:33;7.45;;;6.65;;
35990;SDS011;22064;42.672;23.282;2024-03-29T00:59:59;9.77;;;6.80;;
35990;SDS011;22064;42.672;23.282;2024-03-29T01:02:25;9.23;;;6.25;;
35990;SDS011;22064;42.672;23.282;2024-03-29T01:04:51;7.90;;;6.43;;
35990;SDS011;22064;42.672;23.282;2024-03-29T01:07:17;6.88;;;5.88;;
35990;SDS011;22064;42.672;23.282;2024-03-29T01:09:43;8.43;;;6.10;;
35990;SDS011;22064;42.672;23.282;2024-03-29T01:12:10;6.53;;;5.93;;
35990;SDS011;22064;42.672;23.282;2024-03-29T01:14:36;6.90;;;5.80;;
35990;SDS011;22064;42.672;23.282;2024-03-29T01:17:03;6.90;;;6.10;;
35990;SDS011;22064;42.672;23.282;2024-03-29T01:19:29;6.32;;;5.72;;
35990;SDS011;22064;42.672;23.282;2024-03-29T01:21:54;6.57;;;5.63;;
35990;SDS011;22064;42.672;23.282;2024-03-29T01:24:20;9.30;;;5.88;;
35990;SDS011;22064;42.672;23.282;2024-03-29T01:26:46;8.20;;;6.10;;
35990;SDS011;22064;42.672;23.282;2024-03-29T01:29:13;6.80;;;6.20;;
35990;SDS011;22064;42.672;23.282;2024-03-29T01:31:39;7.05;;;6.40;;
35990;SDS011;22064;42.672;23.282;2024-03-29T01:34:05;6.20;;;5.70;;
35990;SDS011;22064;42.672;23.282;2024-03-29T01:36:31;8.88;;;5.88;;
35990;SDS011;22064;42.672;23.282;2024-03-29T01:38:57;11.55;;;6.10;;
35990;SDS011;22064;42.672;23.282;2024-03-29T01:41:27;6.85;;;6.00;;
35990;SDS011;22064;42.672;23.282;2024-03-29T01:43:53;6.25;;;5.72;;
35990;SDS011;22064;42.672;23.282;2024-03-29T01:46:20;6.50;;;5.85;;
35990;SDS011;22064;42.672;23.282;2024-03-29T01:48:48;8.60;;;5.70;;
35990;SDS011;22064;42.672;23.282;2024-03-29T01:51:15;7.20;;;5.50;;
35990;SDS011;22064;42.672;23.282;2024-03-29T01:53:42;10.82;;;5.47;;
35990;SDS011;22064;42.672;23.282;2024-03-29T01:56:09;7.65;;;5.38;;
35990;SDS011;22064;42.672;23.282;2024-03-29T01:58:35;6.72;;;5.35;;
35990;SDS011;22064;42.672;23.282;2024-03-29T02:01:02;8.55;;;5.53;;
35990;SDS011;22064;42.672;23.282;2024-03-29T02:03:29;5.15;;;4.65;;
35990;SDS011;22064;42.672;23.282;2024-03-29T02:05:55;5.93;;;5.13;;
35990;SDS011;22064;42.672;23.282;2024-03-29T02:08:23;7.93;;;5.00;;
35990;SDS011;22064;42.672;23.282;2024-03-29T02:10:49;6.50;;;4.72;;
35990;SDS011;22064;42.672;23.282;2024-03-29T02:13:16;6.78;;;5.15;;
35990;SDS011;22064;42.672;23.282;2024-03-29T02:15:42;7.57;;;5.35;;
35990;SDS011;22064;42.672;23.282;2024-03-29T02:18:08;8.82;;;5.35;;
35990;SDS011;22064;42.672;23.282;2024-03-29T02:20:34;8.02;;;5.30;;
35990;SDS011;22064;42.672;23.282;2024-03-29T02:23:16;7.10;;;5.03;;
35990;SDS011;22064;42.672;23.282;2024-03-29T02:25:45;5.93;;;5.20;;
35990;SDS011;22064;42.672;23.282;2024-03-29T02:28:12;6.13;;;5.50;;
35990;SDS011;22064;42.672;23.282;2024-03-29T02:30:39;7.57;;;5.50;;
35990;SDS011;22064;42.672;23.282;2024-03-29T02:33:06;5.55;;;5.10;;
35990;SDS011;22064;42.672;23.282;2024-03-29T02:35:32;7.00;;;5.53;;
35990;SDS011;22064;42.672;23.282;2024-03-29T02:37:59;5.68;;;5.13;;
35990;SDS011;22064;42.672;23.282;2024-03-29T02:40:25;7.03;;;5.38;;
35990;SDS011;22064;42.672;23.282;2024-03-29T02:42:51;7.15;;;5.85;;
35990;SDS011;22064;42.672;23.282;2024-03-29T02:45:17;5.75;;;5.25;;
35990;SDS011;22064;42.672;23.282;2024-03-29T02:47:44;8.13;;;5.85;;
35990;SDS011;22064;42.672;23.282;2024-03-29T02:50:14;12.73;;;5.40;;
35990;SDS011;22064;42.672;23.282;2024-03-29T02:52:41;6.60;;;5.45;;
35990;SDS011;22064;42.672;23.282;2024-03-29T02:55:08;9.48;;;5.65;;
35990;SDS011;22064;42.672;23.282;2024-03-29T02:57:36;7.07;;;5.10;;
35990;SDS011;22064;42.672;23.282;2024-03-29T03:00:04;8.70;;;4.80;;
35990;SDS011;22064;42.672;23.282;2024-03-29T03:02:37;11.10;;;5.18;;
35990;SDS011;22064;42.672;23.282;2024-03-29T03:05:04;10.40;;;5.00;;
35990;SDS011;22064;42.672;23.282;2024-03-29T03:07:30;7.85;;;4.55;;
35990;SDS011;22064;42.672;23.282;2024-03-29T03:10:15;8.10;;;4.35;;
35990;SDS011;22064;42.672;23.282;2024-03-29T03:12:59;10.77;;;5.18;;
35990;SDS011;22064;42.672;23.282;2024-03-29T03:15:25;9.07;;;3.80;;
35990;SDS011;22064;42.672;23.282;2024-03-29T03:17:51;6.95;;;3.92;;
35990;SDS011;22064;42.672;23.282;2024-03-29T03:20:18;7.63;;;3.65;;
35990;SDS011;22064;42.672;23.282;2024-03-29T03:22:46;6.82;;;3.88;;
35990;SDS011;22064;42.672;23.282;2024-03-29T03:25:12;6.43;;;3.58;;
35990;SDS011;22064;42.672;23.282;2024-03-29T03:27:37;8.00;;;3.83;;
35990;SDS011;22064;42.672;23.282;2024-03-29T03:30:04;5.35;;;3.55;;
35990;SDS011;22064;42.672;23.282;2024-03-29T03:32:30;10.18;;;4.20;;
35990;SDS011;22064;42.672;23.282;2024-03-29T03:34:56;4.65;;;3.45;;
35990;SDS011;22064;42.672;23.282;2024-03-29T03:37:22;7.35;;;3.40;;
35990;SDS011;22064;42.672;23.282;2024-03-29T03:39:48;10.43;;;3.70;;
35990;SDS011;22064;42.672;23.282;2024-03-29T03:42:14;7.18;;;3.70;;
35990;SDS011;22064;42.672;23.282;2024-03-29T03:44:40;9.27;;;4.45;;
35990;SDS011;22064;42.672;23.282;2024-03-29T03:47:06;6.68;;;3.75;;
35990;SDS011;22064;42.672;23.282;2024-03-29T03:49:31;6.95;;;4.20;;
35990;SDS011;22064;42.672;23.282;2024-03-29T03:51:57;7.70;;;3.97;;
35990;SDS011;22064;42.672;23.282;2024-03-29T03:54:25;8.43;;;3.78;;
35990;SDS011;22064;42.672;23.282;2024-03-29T03:56:51;8.65;;;4.28;;
35990;SDS011;22064;42.672;23.282;2024-03-29T03:59:17;7.47;;;4.20;;
35990;SDS011;22064;42.672;23.282;2024-03-29T04:01:43;9.40;;;4.78;;
35990;SDS011;22064;42.672;23.282;2024-03-29T04:04:09;7.07;;;4.40;;
35990;SDS011;22064;42.672;23.282;2024-03-29T04:06:35;8.77;;;4.28;;
35990;SDS011;22064;42.672;23.282;2024-03-29T04:09:00;7.05;;;4.00;;
35990;SDS011;22064;42.672;23.282;2024-03-29T04:11:26;8.80;;;4.03;;
35990;SDS011;22064;42.672;23.282;2024-03-29T04:13:54;8.60;;;4.03;;
35990;SDS011;22064;42.672;23.282;2024-03-29T04:16:20;8.60;;;4.22;;
35990;SDS011;22064;42.672;23.282;2024-03-29T04:18:46;7.50;;;3.53;;
35990;SDS011;22064;42.672;23.282;2024-03-29T04:21:12;8.60;;;4.15;;
35990;SDS011;22064;42.672;23.282;2024-03-29T04:23:38;5.40;;;3.70;;
35990;SDS011;22064;42.672;23.282;2024-03-29T04:26:05;6.18;;;4.10;;
35990;SDS011;22064;42.672;23.282;2024-03-29T04:28:31;9.05;;;4.03;;
35990;SDS011;22064;42.672;23.282;2024-03-29T04:30:58;5.60;;;4.28;;
35990;SDS011;22064;42.672;23.282;2024-03-29T04:33:24;4.75;;;4.25;;
35990;SDS011;22064;42.672;23.282;2024-03-29T04:35:55;8.75;;;4.40;;
35990;SDS011;22064;42.672;23.282;2024-03-29T04:38:21;7.72;;;4.80;;
35990;SDS011;22064;42.672;23.282;2024-03-29T04:40:48;8.10;;;4.70;;
35990;SDS011;22064;42.672;23.282;2024-03-29T04:43:14;10.32;;;4.90;;
35990;SDS011;22064;42.672;23.282;2024-03-29T04:45:45;9.23;;;5.15;;
35990;SDS011;22064;42.672;23.282;2024-03-29T04:48:12;5.78;;;4.50;;
35990;SDS011;22064;42.672;23.282;2024-03-29T04:50:38;6.25;;;4.80;;
35990;SDS011;22064;42.672;23.282;2024-03-29T04:53:05;8.98;;;5.10;;
35990;SDS011;22064;42.672;23.282;2024-03-29T04:55:31;8.75;;;4.65;;
35990;SDS011;22064;42.672;23.282;2024-03-29T04:57:57;8.57;;;5.65;;
35990;SDS011;22064;42.672;23.282;2024-03-29T05:00:23;9.75;;;5.13;;
35990;SDS011;22064;42.672;23.282;2024-03-29T05:02:49;10.20;;;5.00;;
35990;SDS011;22064;42.672;23.282;2024-03-29T05:05:15;11.07;;;5.43;;
35990;SDS011;22064;42.672;23.282;2024-03-29T05:07:41;8.90;;;5.68;;
35990;SDS011;22064;42.672;23.282;2024-03-29T05:10:06;14.63;;;6.28;;
35990;SDS011;22064;42.672;23.282;2024-03-29T05:12:35;13.27;;;6.20;;
35990;SDS011;22064;42.672;23.282;2024-03-29T05:15:01;13.55;;;6.95;;
35990;SDS011;22064;42.672;23.282;2024-03-29T05:17:28;14.93;;;8.00;;
35990;SDS011;22064;42.672;23.282;2024-03-29T05:19:54;16.05;;;7.10;;
35990;SDS011;22064;42.672;23.282;2024-03-29T05:22:20;14.93;;;7.32;;
35990;SDS011;22064;42.672;23.282;2024-03-29T05:24:46;13.93;;;7.70;;
35990;SDS011;22064;42.672;23.282;2024-03-29T05:27:12;12.75;;;6.63;;
35990;SDS011;22064;42.672;23.282;2024-03-29T05:29:39;13.57;;;7.47;;
35990;SDS011;22064;42.672;23.282;2024-03-29T05:32:06;12.32;;;6.57;;
35990;SDS011;22064;42.672;23.282;2024-03-29T05:34:33;17.92;;;7.72;;
35990;SDS011;22064;42.672;23.282;2024-03-29T05:36:59;11.73;;;8.07;;
35990;SDS011;22064;42.672;23.282;2024-03-29T05:39:25;12.73;;;7.35;;
35990;SDS011;22064;42.672;23.282;2024-03-29T05:41:51;14.90;;;8.00;;
35990;SDS011;22064;42.672;23.282;2024-03-29T05:44:17;15.63;;;8.65;;
35990;SDS011;22064;42.672;23.282;2024-03-29T05:46:43;17.90;;;8.60;;
35990;SDS011;22064;42.672;23.282;2024-03-29T05:49:10;11.63;;;8.70;;
35990;SDS011;22064;42.672;23.282;2024-03-29T05:51:36;12.23;;;7.95;;
35990;SDS011;22064;42.672;23.282;2024-03-29T05:54:02;13.80;;;8.57;;
35990;SDS011;22064;42.672;23.282;2024-03-29T05:56:31;13.03;;;8.00;;
35990;SDS011;22064;42.672;23.282;2024-03-29T05:58:57;14.02;;;7.50;;
35990;SDS011;22064;42.672;23.282;2024-03-29T06:01:23;17.30;;;8.65;;
35990;SDS011;22064;42.672;23.282;2024-03-29T06:03:49;19.35;;;8.68;;
35990;SDS011;22064;42.672;23.282;2024-03-29T06:06:20;7.85;;;6.93;;
35990;SDS011;22064;42.672;23.282;2024-03-29T06:08:50;10.07;;;7.25;;
35990;SDS011;22064;42.672;23.282;2024-03-29T06:11:17;13.23;;;8.25;;
35990;SDS011;22064;42.672;23.282;2024-03-29T06:13:43;8.20;;;7.50;;
35990;SDS011;22064;42.672;23.282;2024-03-29T06:16:19;11.60;;;6.95;;
35990;SDS011;22064;42.672;23.282;2024-03-29T06:19:09;7.82;;;7.03;;
35990;SDS011;22064;42.672;23.282;2024-03-29T06:21:36;9.52;;;6.80;;
35990;SDS011;22064;42.672;23.282;2024-03-29T06:24:05;11.48;;;7.60;;
35990;SDS011;22064;42.672;23.282;2024-03-29T06:26:33;11.15;;;6.97;;
35990;SDS011;22064;42.672;23.282;2024-03-29T06:29:02;7.47;;;6.75;;
35990;SDS011;22064;42.672;23.282;2024-03-29T06:31:28;7.82;;;7.13;;
35990;SDS011;22064;42.672;23.282;2024-03-29T06:33:55;8.00;;;7.35;;
35990;SDS011;22064;42.672;23.282;2024-03-29T06:36:21;9.18;;;7.28;;
35990;SDS011;22064;42.672;23.282;2024-03-29T06:38:47;7.75;;;6.95;;
35990;SDS011;22064;42.672;23.282;2024-03-29T06:41:13;9.80;;;7.45;;
35990;SDS011;22064;42.672;23.282;2024-03-29T06:43:41;8.13;;;7.25;;
35990;SDS011;22064;42.672;23.282;2024-03-29T06:46:10;8.13;;;7.43;;
35990;SDS011;22064;42.672;23.282;2024-03-29T06:48:40;14.43;;;8.60;;
35990;SDS011;22064;42.672;23.282;2024-03-29T06:51:06;10.15;;;7.18;;
35990;SDS011;22064;42.672;23.282;2024-03-29T06:53:32;7.57;;;6.95;;
35990;SDS011;22064;42.672;23.282;2024-03-29T06:55:59;7.70;;;7.00;;
35990;SDS011;22064;42.672;23.282;2024-03-29T06:58:26;7.82;;;7.00;;
35990;SDS011;22064;42.672;23.282;2024-03-29T07:00:52;8.10;;;7.20;;
35990;SDS011;22064;42.672;23.282;2024-03-29T07:03:18;7.68;;;7.07;;
35990;SDS011;22064;42.672;23.282;2024-03-29T07:05:48;8.05;;;7.25;;
35990;SDS011;22064;42.672;23.282;2024-03-29T07:08:13;11.40;;;7.43;;
35990;SDS011;22064;42.672;23.282;2024-03-29T07:10:39;8.10;;;7.30;;
35990;SDS011;22064;42.672;23.282;2024-03-29T07:13:08;8.68;;;7.45;;
35990;SDS011;22064;42.672;23.282;2024-03-29T07:15:35;7.97;;;7.45;;
35990;SDS011;22064;42.672;23.282;2024-03-29T07:18:01;9.07;;;7.47;;
35990;SDS011;22064;42.672;23.282;2024-03-29T07:20:30;8.77;;;7.65;;
35990;SDS011;22064;42.672;23.282;2024-03-29T07:22:56;11.07;;;7.43;;
35990;SDS011;22064;42.672;23.282;2024-03-29T07:25:22;8.05;;;7.25;;
35990;SDS011;22064;42.672;23.282;2024-03-29T07:27:49;8.00;;;7.30;;
35990;SDS011;22064;42.672;23.282;2024-03-29T07:30:15;8.75;;;7.70;;
35990;SDS011;22064;42.672;23.282;2024-03-29T07:32:41;7.95;;;7.07;;
35990;SDS011;22064;42.672;23.282;2024-03-29T07:35:07;10.93;;;7.90;;
35990;SDS011;22064;42.672;23.282;2024-03-29T07:37:33;9.07;;;7.88;;
35990;SDS011;22064;42.672;23.282;2024-03-29T07:39:59;8.40;;;7.32;;
35990;SDS011;22064;42.672;23.282;2024-03-29T07:42:26;9.15;;;7.75;;
35990;SDS011;22064;42.672;23.282;2024-03-29T07:44:52;12.05;;;7.65;;
35990;SDS011;22064;42.672;23.282;2024-03-29T07:47:19;8.25;;;7.57;;
35990;SDS011;22064;42.672;23.282;2024-03-29T07:49:47;8.00;;;7.35;;
35990;SDS011;22064;42.672;23.282;2024-03-29T07:52:13;8.40;;;7.47;;
35990;SDS011;22064;42.672;23.282;2024-03-29T07:54:40;8.15;;;7.35;;
35990;SDS011;22064;42.672;23.282;2024-03-29T07:57:06;8.57;;;7.75;;
35990;SDS011;22064;42.672;23.282;2024-03-29T07:59:34;8.80;;;8.00;;
35990;SDS011;22064;42.672;23.282;2024-03-29T08:02:00;8.93;;;8.07;;
35990;SDS011;22064;42.672;23.282;2024-03-29T08:04:29;8.90;;;7.38;;
35990;SDS011;22064;42.672;23.282;2024-03-29T08:06:55;8.02;;;7.50;;
35990;SDS011;22064;42.672;23.282;2024-03-29T08:09:21;8.05;;;7.30;;
35990;SDS011;22064;42.672;23.282;2024-03-29T08:11:47;8.32;;;7.65;;
35990;SDS011;22064;42.672;23.282;2024-03-29T08:14:13;9.40;;;8.45;;
35990;SDS011;22064;42.672;23.282;2024-03-29T08:16:39;8.82;;;8.07;;
35990;SDS011;22064;42.672;23.282;2024-03-29T08:19:05;8.68;;;7.97;;
35990;SDS011;22064;42.672;23.282;2024-03-29T08:21:31;9.07;;;8.18;;
35990;SDS011;22064;42.672;23.282;2024-03-29T08:23:57;11.77;;;8.73;;
35990;SDS011;22064;42.672;23.282;2024-03-29T08:26:24;8.75;;;7.93;;
35990;SDS011;22064;42.672;23.282;2024-03-29T08:28:50;11.18;;;8.00;;
35990;SDS011;22064;42.672;23.282;2024-03-29T08:31:16;9.60;;;8.05;;
35990;SDS011;22064;42.672;23.282;2024-03-29T08:33:43;8.65;;;7.95;;
35990;SDS011;22064;42.672;23.282;2024-03-29T08:36:09;10.60;;;8.05;;
35990;SDS011;22064;42.672;23.282;2024-03-29T08:38:36;8.70;;;7.97;;
35990;SDS011;22064;42.672;23.282;2024-03-29T08:41:09;9.13;;;8.15;;
35990;SDS011;22064;42.672;23.282;2024-03-29T08:43:35;8.60;;;7.88;;
35990;SDS011;22064;42.672;23.282;2024-03-29T08:46:02;8.90;;;8.25;;
35990;SDS011;22064;42.672;23.282;2024-03-29T08:48:28;9.02;;;8.18;;
35990;SDS011;22064;42.672;23.282;2024-03-29T08:50:55;15.18;;;8.90;;
35990;SDS011;22064;42.672;23.282;2024-03-29T08:53:22;8.20;;;7.53;;
35990;SDS011;22064;42.672;23.282;2024-03-29T08:55:48;11.90;;;8.80;;
35990;SDS011;22064;42.672;23.282;2024-03-29T08:58:14;10.98;;;8.40;;
35990;SDS011;22064;42.672;23.282;2024-03-29T09:00:40;8.82;;;8.13;;
35990;SDS011;22064;42.672;23.282;2024-03-29T09:03:06;9.27;;;8.50;;
35990;SDS011;22064;42.672;23.282;2024-03-29T09:05:32;8.80;;;8.05;;
35990;SDS011;22064;42.672;23.282;2024-03-29T09:07:59;8.88;;;8.15;;
35990;SDS011;22064;42.672;23.282;2024-03-29T09:10:25;11.15;;;8.18;;
35990;SDS011;22064;42.672;23.282;2024-03-29T09:12:54;9.20;;;8.40;;
35990;SDS011;22064;42.672;23.282;2024-03-29T09:15:20;10.85;;;8.70;;
35990;SDS011;22064;42.672;23.282;2024-03-29T09:17:46;9.68;;;8.55;;
35990;SDS011;22064;42.672;23.282;2024-03-29T09:20:12;9.93;;;8.32;;
35990;SDS011;22064;42.672;23.282;2024-03-29T09:22:39;9.25;;;8.27;;
35990;SDS011;22064;42.672;23.282;2024-03-29T09:25:05;10.18;;;8.65;;
35990;SDS011;22064;42.672;23.282;2024-03-29T09:27:34;10.77;;;8.73;;
35990;SDS011;22064;42.672;23.282;2024-03-29T09:30:02;12.77;;;8.90;;
35990;SDS011;22064;42.672;23.282;2024-03-29T09:32:31;10.73;;;8.77;;
35990;SDS011;22064;42.672;23.282;2024-03-29T09:34:58;9.73;;;8.77;;
35990;SDS011;22064;42.672;23.282;2024-03-29T09:37:26;9.80;;;8.80;;
35990;SDS011;22064;42.672;23.282;2024-03-29T09:39:52;10.43;;;8.80;;
35990;SDS011;22064;42.672;23.282;2024-03-29T09:42:18;9.77;;;8.50;;
35990;SDS011;22064;42.672;23.282;2024-03-29T09:44:47;9.70;;;8.82;;
35990;SDS011;22064;42.672;23.282;2024-03-29T09:47:17;10.45;;;9.40;;
35990;SDS011;22064;42.672;23.282;2024-03-29T09:49:46;9.70;;;8.77;;
35990;SDS011;22064;42.672;23.282;2024-03-29T09:52:15;9.82;;;8.73;;
35990;SDS011;22064;42.672;23.282;2024-03-29T09:54:42;9.70;;;8.77;;
35990;SDS011;22064;42.672;23.282;2024-03-29T09:57:08;11.90;;;8.93;;
35990;SDS011;22064;42.672;23.282;2024-03-29T09:59:35;9.35;;;8.65;;
35990;SDS011;22064;42.672;23.282;2024-03-29T10:02:03;12.88;;;9.52;;
35990;SDS011;22064;42.672;23.282;2024-03-29T10:04:35;9.45;;;8.63;;
35990;SDS011;22064;42.672;23.282;2024-03-29T10:07:02;10.40;;;9.40;;
35990;SDS011;22064;42.672;23.282;2024-03-29T10:09:29;11.32;;;9.40;;
35990;SDS011;22064;42.672;23.282;2024-03-29T10:11:58;11.15;;;9.30;;
35990;SDS011;22064;42.672;23.282;2024-03-29T10:14:24;10.95;;;9.23;;
35990;SDS011;22064;42.672;23.282;2024-03-29T10:16:51;10.02;;;9.10;;
35990;SDS011;22064;42.672;23.282;2024-03-29T10:19:17;10.85;;;9.73;;
35990;SDS011;22064;42.672;23.282;2024-03-29T10:21:43;9.85;;;9.05;;
35990;SDS011;22064;42.672;23.282;2024-03-29T10:24:15;12.88;;;9.35;;
35990;SDS011;22064;42.672;23.282;2024-03-29T10:26:50;10.00;;;9.07;;
35990;SDS011;22064;42.672;23.282;2024-03-29T10:29:18;10.55;;;9.23;;
35990;SDS011;22064;42.672;23.282;2024-03-29T10:31:44;9.95;;;8.98;;
35990;SDS011;22064;42.672;23.282;2024-03-29T10:34:09;10.80;;;9.65;;
35990;SDS011;22064;42.672;23.282;2024-03-29T10:36:36;11.57;;;10.15;;
35990;SDS011;22064;42.672;23.282;2024-03-29T10:39:11;10.70;;;9.68;;
35990;SDS011;22064;42.672;23.282;2024-03-29T10:41:41;12.65;;;10.00;;
35990;SDS011;22064;42.672;23.282;2024-03-29T10:44:09;11.55;;;9.60;;
35990;SDS011;22064;42.672;23.282;2024-03-29T10:46:40;10.35;;;9.13;;
35990;SDS011;22064;42.672;23.282;2024-03-29T10:49:09;11.85;;;10.25;;
35990;SDS011;22064;42.672;23.282;2024-03-29T10:51:39;11.80;;;9.45;;
35990;SDS011;22064;42.672;23.282;2024-03-29T10:54:10;11.32;;;10.07;;
35990;SDS011;22064;42.672;23.282;2024-03-29T10:56:38;10.15;;;9.25;;
35990;SDS011;22064;42.672;23.282;2024-03-29T11:02:11;10.13;;;9.40;;
35990;SDS011;22064;42.672;23.282;2024-03-29T11:04:42;10.93;;;9.90;;
35990;SDS011;22064;42.672;23.282;2024-03-29T11:07:15;11.13;;;10.02;;
35990;SDS011;22064;42.672;23.282;2024-03-29T11:09:50;13.07;;;9.73;;
35990;SDS011;22064;42.672;23.282;2024-03-29T11:12:21;10.88;;;9.73;;
35990;SDS011;22064;42.672;23.282;2024-03-29T11:14:51;12.13;;;9.75;;
35990;SDS011;22064;42.672;23.282;2024-03-29T11:17:28;10.88;;;9.70;;
35990;SDS011;22064;42.672;23.282;2024-03-29T11:19:56;10.70;;;9.70;;
35990;SDS011;22064;42.672;23.282;2024-03-29T11:22:28;10.32;;;9.38;;
35990;SDS011;22064;42.672;23.282;2024-03-29T11:24:54;11.25;;;9.60;;
35990;SDS011;22064;42.672;23.282;2024-03-29T11:27:23;12.55;;;9.80;;
35990;SDS011;22064;42.672;23.282;2024-03-29T11:29:49;13.10;;;9.93;;
35990;SDS011;22064;42.672;23.282;2024-03-29T11:32:36;12.10;;;10.85;;
35990;SDS011;22064;42.672;23.282;2024-03-29T11:35:05;12.38;;;9.80;;
35990;SDS011;22064;42.672;23.282;2024-03-29T11:37:36;15.52;;;9.73;;
35990;SDS011;22064;42.672;23.282;2024-03-29T11:40:03;12.35;;;10.20;;
35990;SDS011;22064;42.672;23.282;2024-03-29T11:42:36;10.90;;;9.70;;
35990;SDS011;22064;42.672;23.282;2024-03-29T11:45:13;10.82;;;9.73;;
35990;SDS011;22064;42.672;23.282;2024-03-29T11:47:39;10.80;;;9.73;;
35990;SDS011;22064;42.672;23.282;2024-03-29T11:50:08;10.52;;;9.60;;
35990;SDS011;22064;42.672;23.282;2024-03-29T11:52:36;10.82;;;9.82;;
35990;SDS011;22064;42.672;23.282;2024-03-29T11:55:05;11.32;;;9.70;;
35990;SDS011;22064;42.672;23.282;2024-03-29T11:57:33;11.52;;;10.40;;
35990;SDS011;22064;42.672;23.282;2024-03-29T12:00:00;10.88;;;9.77;;
35990;SDS011;22064;42.672;23.282;2024-03-29T12:02:26;12.48;;;10.20;;
35990;SDS011;22064;42.672;23.282;2024-03-29T12:04:52;10.85;;;9.77;;
35990;SDS011;22064;42.672;23.282;2024-03-29T12:07:17;11.13;;;9.77;;
35990;SDS011;22064;42.672;23.282;2024-03-29T12:09:44;11.07;;;10.05;;
35990;SDS011;22064;42.672;23.282;2024-03-29T12:12:09;12.50;;;9.75;;
35990;SDS011;22064;42.672;23.282;2024-03-29T12:14:36;12.35;;;10.27;;
35990;SDS011;22064;42.672;23.282;2024-03-29T12:17:11;11.35;;;10.25;;
35990;SDS011;22064;42.672;23.282;2024-03-29T12:19:38;10.35;;;9.43;;
35990;SDS011;22064;42.672;23.282;2024-03-29T12:22:08;11.25;;;10.30;;
35990;SDS011;22064;42.672;23.282;2024-03-29T12:24:35;11.00;;;9.93;;
35990;SDS011;22064;42.672;23.282;2024-03-29T12:27:02;10.70;;;9.65;;
35990;SDS011;22064;42.672;23.282;2024-03-29T12:29:28;12.35;;;10.82;;
35990;SDS011;22064;42.672;23.282;2024-03-29T12:32:01;12.70;;;10.25;;
35990;SDS011;22064;42.672;23.282;2024-03-29T12:34:27;10.80;;;9.88;;
35990;SDS011;22064;42.672;23.282;2024-03-29T12:36:53;10.93;;;9.85;;
35990;SDS011;22064;42.672;23.282;2024-03-29T12:39:19;11.38;;;10.18;;
35990;SDS011;22064;42.672;23.282;2024-03-29T12:41:48;11.43;;;10.25;;
35990;SDS011;22064;42.672;23.282;2024-03-29T12:44:14;11.43;;;10.40;;
35990;SDS011;22064;42.672;23.282;2024-03-29T12:46:40;10.70;;;9.90;;
35990;SDS011;22064;42.672;23.282;2024-03-29T12:49:09;11.45;;;10.27;;
35990;SDS011;22064;42.672;23.282;2024-03-29T12:51:37;11.27;;;10.32;;
35990;SDS011;22064;42.672;23.282;2024-03-29T12:56:31;11.73;;;10.07;;
35990;SDS011;22064;42.672;23.282;2024-03-29T12:59:01;11.10;;;10.15;;
35990;SDS011;22064;42.672;23.282;2024-03-29T13:01:26;14.63;;;10.60;;
35990;SDS011;22064;42.672;23.282;2024-03-29T13:03:52;11.63;;;10.55;;
35990;SDS011;22064;42.672;23.282;2024-03-29T13:06:21;11.35;;;10.40;;
35990;SDS011;22064;42.672;23.282;2024-03-29T13:08:47;11.43;;;10.43;;
35990;SDS011;22064;42.672;23.282;2024-03-29T13:11:15;11.30;;;10.40;;
35990;SDS011;22064;42.672;23.282;2024-03-29T13:13:41;11.30;;;10.20;;
35990;SDS011;22064;42.672;23.282;2024-03-29T13:16:07;11.13;;;10.30;;
35990;SDS011;22064;42.672;23.282;2024-03-29T13:18:33;10.85;;;10.05;;
35990;SDS011;22064;42.672;23.282;2024-03-29T13:20:59;11.73;;;10.57;;
35990;SDS011;22064;42.672;23.282;2024-03-29T13:23:27;11.57;;;10.38;;
35990;SDS011;22064;42.672;23.282;2024-03-29T13:25:53;11.40;;;10.50;;
35990;SDS011;22064;42.672;23.282;2024-03-29T13:28:21;14.07;;;10.52;;
35990;SDS011;22064;42.672;23.282;2024-03-29T13:30:48;11.50;;;10.50;;
35990;SDS011;22064;42.672;23.282;2024-03-29T13:33:18;11.90;;;10.43;;
35990;SDS011;22064;42.672;23.282;2024-03-29T13:35:47;11.43;;;10.43;;
35990;SDS011;22064;42.672;23.282;2024-03-29T13:38:17;11.05;;;10.20;;
35990;SDS011;22064;42.672;23.282;2024-03-29T13:40:47;11.60;;;10.05;;
35990;SDS011;22064;42.672;23.282;2024-03-29T13:43:13;11.60;;;10.57;;
35990;SDS011;22064;42.672;23.282;2024-03-29T13:45:40;11.98;;;10.75;;
35990;SDS011;22064;42.672;23.282;2024-03-29T13:48:06;13.02;;;10.90;;
35990;SDS011;22064;42.672;23.282;2024-03-29T13:50:33;11.40;;;10.48;;
35990;SDS011;22064;42.672;23.282;2024-03-29T13:52:59;11.25;;;10.23;;
35990;SDS011;22064;42.672;23.282;2024-03-29T13:55:25;11.23;;;10.32;;
35990;SDS011;22064;42.672;23.282;2024-03-29T13:57:53;11.02;;;10.20;;
35990;SDS011;22064;42.672;23.282;2024-03-29T14:00:20;11.20;;;10.38;;
35990;SDS011;22064;42.672;23.282;2024-03-29T14:02:47;10.95;;;9.98;;
35990;SDS011;22064;42.672;23.282;2024-03-29T14:05:12;11.73;;;10.82;;
35990;SDS011;22064;42.672;23.282;2024-03-29T14:07:39;11.00;;;10.20;;
35990;SDS011;22064;42.672;23.282;2024-03-29T14:10:05;11.23;;;10.20;;
35990;SDS011;22064;42.672;23.282;2024-03-29T14:12:33;11.82;;;10.25;;
35990;SDS011;22064;42.672;23.282;2024-03-29T14:15:02;11.38;;;10.38;;
35990;SDS011;22064;42.672;23.282;2024-03-29T14:17:28;11.65;;;10.48;;
35990;SDS011;22064;42.672;23.282;2024-03-29T14:19:54;11.40;;;10.35;;
35990;SDS011;22064;42.672;23.282;2024-03-29T14:22:20;11.95;;;10.77;;
35990;SDS011;22064;42.672;23.282;2024-03-29T14:24:47;11.38;;;10.38;;
35990;SDS011;22064;42.672;23.282;2024-03-29T14:27:13;10.75;;;9.75;;
35990;SDS011;22064;42.672;23.282;2024-03-29T14:29:40;12.50;;;9.95;;
35990;SDS011;22064;42.672;23.282;2024-03-29T14:32:06;11.23;;;10.13;;